createdAt,value
2024-04-18T00:00:33.162Z,10.98
2024-04-18T00:03:03.268Z,10.98
2024-04-18T00:05:37.368Z,11.70
2024-04-18T00:08:09.345Z,11.70
2024-04-18T00:10:40.189Z,12.23
2024-04-18T00:13:12.256Z,12.07
2024-04-18T00:16:01.094Z,12.43
2024-04-18T00:18:38.447Z,11.82
2024-04-18T00:21:40.778Z,12.13
2024-04-18T00:24:30.189Z,12.68
2024-04-18T00:27:00.502Z,12.38
2024-04-18T00:29:39.907Z,12.90
2024-04-18T00:32:13.685Z,13.02
2024-04-18T00:35:03.633Z,12.48
2024-04-18T00:37:39.724Z,11.65
2024-04-18T00:40:10.247Z,11.52
2024-04-18T00:42:41.249Z,11.63
2024-04-18T00:45:11.596Z,11.25
2024-04-18T00:47:50.176Z,11.73
2024-04-18T00:50:21.734Z,11.48
2024-04-18T00:52:52.236Z,13.07
2024-04-18T00:55:30.643Z,10.90
2024-04-18T00:58:13.913Z,10.50
2024-04-18T01:00:45.399Z,10.13
2024-04-18T01:03:33.979Z,10.18
2024-04-18T01:06:11.299Z,9.93
2024-04-18T01:09:05.546Z,10.38
2024-04-18T01:11:35.816Z,10.40
2024-04-18T01:14:13.622Z,10.65
2024-04-18T01:17:04.902Z,10.55
2024-04-18T01:19:36.253Z,10.82
2024-04-18T01:22:07.080Z,12.10
2024-04-18T01:24:37.483Z,11.35
2024-04-18T01:27:07.743Z,10.98
2024-04-18T01:29:49.203Z,9.73
2024-04-18T01:32:38.703Z,10.27
2024-04-18T01:35:09.430Z,9.73
2024-04-18T01:37:49.448Z,10.68
2024-04-18T01:40:19.846Z,10.20
2024-04-18T01:43:28.250Z,10.63
2024-04-18T01:46:21.644Z,9.57
2024-04-18T01:49:03.963Z,9.43
2024-04-18T01:51:52.943Z,10.07
2024-04-18T01:54:37.571Z,15.55
2024-04-18T01:57:07.990Z,16.48
2024-04-18T01:59:57.716Z,16.85
2024-04-18T02:02:27.980Z,18.00
2024-04-18T02:05:11.121Z,18.50
2024-04-18T02:07:47.397Z,16.95
2024-04-18T02:10:18.257Z,22.13
2024-04-18T02:13:03.904Z,17.13
2024-04-18T02:15:52.775Z,18.40
2024-04-18T02:18:23.264Z,17.92
2024-04-18T02:20:53.437Z,17.90
2024-04-18T02:23:26.575Z,20.67
2024-04-18T02:25:56.704Z,18.48
2024-04-18T02:28:26.875Z,19.25
2024-04-18T02:31:16.926Z,21.38
2024-04-18T02:33:55.018Z,20.42
2024-04-18T02:36:26.347Z,17.65
2024-04-18T02:39:18.557Z,22.05
2024-04-18T02:41:49.056Z,17.92
2024-04-18T02:44:29.160Z,16.92
2024-04-18T02:46:59.813Z,18.17
2024-04-18T02:49:32.449Z,17.85
2024-04-18T02:52:02.771Z,17.65
2024-04-18T02:54:48.291Z,18.15
2024-04-18T02:57:18.561Z,19.85
2024-04-18T02:59:49.130Z,21.45
2024-04-18T03:02:26.824Z,19.42
2024-04-18T03:05:16.190Z,22.75
2024-04-18T03:07:46.548Z,20.90
2024-04-18T03:10:19.186Z,27.90
2024-04-18T03:13:06.434Z,35.63
2024-04-18T03:15:55.689Z,26.38
2024-04-18T03:18:26.284Z,46.00
2024-04-18T03:21:16.809Z,25.65
2024-04-18T03:23:47.203Z,46.95
2024-04-18T03:26:39.484Z,31.65
2024-04-18T03:29:09.992Z,27.98
2024-04-18T03:31:59.962Z,22.70
2024-04-18T03:34:51.558Z,20.17
2024-04-18T03:37:22.736Z,54.00
2024-04-18T03:39:53.354Z,27.92
2024-04-18T03:42:23.779Z,24.35
2024-04-18T03:44:56.965Z,25.27
2024-04-18T03:47:27.396Z,21.40
2024-04-18T03:50:15.846Z,19.67
2024-04-18T03:52:46.651Z,17.67
2024-04-18T03:55:35.600Z,17.40
2024-04-18T03:58:06.817Z,15.90
2024-04-18T04:00:53.024Z,14.13
2024-04-18T04:03:24.743Z,14.20
2024-04-18T04:05:56.555Z,13.45
2024-04-18T04:08:26.886Z,12.00
2024-04-18T04:11:16.383Z,13.75
2024-04-18T04:13:47.379Z,12.95
2024-04-18T04:16:22.312Z,14.93
2024-04-18T04:19:12.532Z,12.45
2024-04-18T04:21:52.893Z,12.05
2024-04-18T04:24:23.751Z,12.93
2024-04-18T04:26:56.229Z,11.45
2024-04-18T04:29:27.823Z,12.07
2024-04-18T04:31:58.331Z,10.98
2024-04-18T04:34:28.907Z,10.60
2024-04-18T04:36:59.828Z,11.27
2024-04-18T04:39:30.348Z,12.00
2024-04-18T04:42:21.057Z,11.80
2024-04-18T04:44:51.855Z,10.98
2024-04-18T04:47:36.735Z,9.05
2024-04-18T04:50:32.830Z,9.95
2024-04-18T04:53:18.101Z,9.77
2024-04-18T04:56:03.454Z,10.75
2024-04-18T04:58:33.637Z,9.75
2024-04-18T05:01:05.485Z,10.35
2024-04-18T05:03:39.810Z,9.95
2024-04-18T05:06:28.473Z,11.13
2024-04-18T05:09:19.091Z,11.18
2024-04-18T05:11:50.727Z,10.90
2024-04-18T05:14:38.745Z,9.93
2024-04-18T05:17:30.984Z,9.75
2024-04-18T05:20:16.423Z,9.68
2024-04-18T05:22:46.888Z,9.48
2024-04-18T05:25:17.030Z,10.32
2024-04-18T05:27:57.857Z,8.95
2024-04-18T05:30:56.750Z,15.30
2024-04-18T05:33:27.162Z,9.10
2024-04-18T05:35:57.356Z,10.07
2024-04-18T05:38:28.221Z,9.75
2024-04-18T05:40:58.627Z,9.52
2024-04-18T05:43:47.059Z,8.13
2024-04-18T05:46:19.803Z,7.85
2024-04-18T05:48:50.099Z,8.95
2024-04-18T05:51:20.615Z,8.35
2024-04-18T05:54:16.568Z,8.80
2024-04-18T05:57:04.973Z,8.40
2024-04-18T05:59:54.926Z,8.90
2024-04-18T06:02:25.143Z,7.90
2024-04-18T06:04:55.673Z,7.97
2024-04-18T06:07:46.372Z,8.80
2024-04-18T06:10:17.186Z,7.80
2024-04-18T06:12:47.795Z,7.10
2024-04-18T06:15:18.501Z,8.07
2024-04-18T06:17:49.381Z,9.77
2024-04-18T06:20:20.399Z,7.72
2024-04-18T06:22:51.727Z,7.22
2024-04-18T06:25:28.412Z,7.95
2024-04-18T06:28:03.003Z,6.60
2024-04-18T06:30:33.587Z,7.22
2024-04-18T06:33:04.491Z,7.72
2024-04-18T06:35:35.279Z,7.90
2024-04-18T06:38:06.515Z,7.78
2024-04-18T06:40:37.291Z,7.40
2024-04-18T06:43:07.833Z,8.65
2024-04-18T06:45:40.682Z,8.32
2024-04-18T06:48:11.381Z,10.40
2024-04-18T06:50:42.264Z,10.48
2024-04-18T06:53:12.819Z,9.85
2024-04-18T06:55:43.479Z,7.40
2024-04-18T06:58:14.190Z,6.45
2024-04-18T07:00:44.584Z,7.60
2024-04-18T07:03:16.488Z,7.43
2024-04-18T07:05:56.020Z,8.15
2024-04-18T07:08:29.839Z,8.13
2024-04-18T07:11:01.606Z,7.60
2024-04-18T07:13:34.335Z,7.60
2024-04-18T07:16:24.172Z,8.00
2024-04-18T07:18:57.544Z,7.15
2024-04-18T07:21:27.642Z,6.47
2024-04-18T07:24:19.309Z,6.90
2024-04-18T07:26:49.731Z,7.20
2024-04-18T07:29:20.661Z,6.43
2024-04-18T07:31:51.306Z,6.28
2024-04-18T07:34:22.055Z,6.85
2024-04-18T07:36:53.852Z,5.93
2024-04-18T07:39:24.933Z,5.82
2024-04-18T07:41:55.707Z,6.30
2024-04-18T07:44:44.659Z,6.60
2024-04-18T07:47:15.238Z,6.82
2024-04-18T07:49:48.009Z,6.35
2024-04-18T07:52:20.583Z,6.07
2024-04-18T07:54:51.678Z,5.78
2024-04-18T07:57:22.708Z,9.45
2024-04-18T07:59:57.130Z,7.28
2024-04-18T08:02:30.565Z,7.85
2024-04-18T08:05:03.840Z,7.45
2024-04-18T08:07:37.370Z,47.13
2024-04-18T08:10:13.730Z,7.55
2024-04-18T08:12:50.874Z,8.18
2024-04-18T08:18:14.962Z,7.90
2024-04-18T08:20:49.307Z,7.47
2024-04-18T08:23:22.514Z,6.88
2024-04-18T08:25:54.565Z,10.82
2024-04-18T08:28:35.838Z,10.48
2024-04-18T08:31:06.605Z,8.15
2024-04-18T08:33:38.832Z,12.18
2024-04-18T08:36:11.063Z,25.20
2024-04-18T08:38:43.163Z,31.52
2024-04-18T08:41:17.199Z,10.20
2024-04-18T08:43:57.253Z,9.88
2024-04-18T08:46:28.366Z,10.27
2024-04-18T08:49:00.426Z,7.40
2024-04-18T08:51:32.257Z,8.75
2024-04-18T08:54:03.200Z,6.40
2024-04-18T08:56:37.650Z,5.30
2024-04-18T08:59:10.187Z,8.05
2024-04-18T09:01:41.612Z,7.60
2024-04-18T09:04:12.025Z,6.85
2024-04-18T09:06:42.266Z,7.25
2024-04-18T09:09:20.519Z,7.65
2024-04-18T09:11:51.695Z,7.72
2024-04-18T09:14:22.414Z,6.90
2024-04-18T09:16:52.903Z,7.28
2024-04-18T09:19:23.466Z,6.68
2024-04-18T09:21:53.901Z,5.85
2024-04-18T09:24:24.292Z,5.90
2024-04-18T09:26:54.707Z,6.70
2024-04-18T09:29:25.042Z,5.95
2024-04-18T09:31:56.907Z,6.13
2024-04-18T09:34:28.309Z,7.13
2024-04-18T09:37:00.229Z,7.70
2024-04-18T09:39:32.356Z,8.25
2024-04-18T09:42:15.763Z,8.52
2024-04-18T09:45:02.515Z,7.05
2024-04-18T09:47:34.882Z,7.25
2024-04-18T09:50:05.867Z,6.85
2024-04-18T09:52:36.945Z,8.93
2024-04-18T09:55:08.137Z,8.23
2024-04-18T09:57:38.686Z,7.80
2024-04-18T10:00:10.578Z,15.40
2024-04-18T10:02:44.940Z,10.55
2024-04-18T10:05:17.261Z,7.93
2024-04-18T10:07:48.728Z,8.77
2024-04-18T10:10:20.356Z,7.25
2024-04-18T10:12:51.272Z,10.00
2024-04-18T10:15:22.200Z,10.35
2024-04-18T10:17:53.034Z,10.50
2024-04-18T10:20:32.094Z,9.48
2024-04-18T10:23:03.670Z,7.68
2024-04-18T10:25:42.605Z,9.30
2024-04-18T10:28:32.272Z,8.63
2024-04-18T10:31:09.455Z,8.90
2024-04-18T10:33:41.588Z,7.70
2024-04-18T10:36:21.582Z,8.85
2024-04-18T10:38:52.269Z,8.00
2024-04-18T10:41:26.967Z,9.07
2024-04-18T10:44:00.167Z,10.82
2024-04-18T10:46:33.397Z,9.90
2024-04-18T10:49:04.493Z,10.48
2024-04-18T10:51:37.085Z,10.38
2024-04-18T10:54:12.771Z,14.20
2024-04-18T10:56:43.261Z,11.70
2024-04-18T10:59:15.199Z,10.95
2024-04-18T11:01:46.105Z,10.90
2024-04-18T11:04:17.218Z,13.77
2024-04-18T11:06:49.225Z,11.57
2024-04-18T11:09:20.859Z,12.43
2024-04-18T11:11:52.302Z,12.63
2024-04-18T11:14:27.912Z,11.98
2024-04-18T11:17:02.740Z,14.20
2024-04-18T11:19:34.903Z,14.68
2024-04-18T11:22:09.330Z,11.23
2024-04-18T11:24:40.542Z,19.15
2024-04-18T11:27:12.331Z,13.20
2024-04-18T11:29:47.536Z,12.50
2024-04-18T11:32:17.892Z,14.00
2024-04-18T11:34:57.099Z,15.63
2024-04-18T11:37:42.315Z,16.38
2024-04-18T11:40:13.720Z,14.85
2024-04-18T11:42:47.568Z,14.45
2024-04-18T11:45:18.388Z,14.35
2024-04-18T11:47:48.998Z,14.73
2024-04-18T11:50:20.402Z,17.45
2024-04-18T11:52:51.094Z,16.30
2024-04-18T11:55:31.987Z,16.42
2024-04-18T11:58:22.195Z,15.63
2024-04-18T12:00:52.762Z,18.88
2024-04-18T12:03:43.288Z,15.35
2024-04-18T12:06:32.939Z,15.35
2024-04-18T12:09:04.929Z,20.58
2024-04-18T12:11:36.271Z,24.63
2024-04-18T12:14:16.087Z,19.23
2024-04-18T12:17:01.586Z,17.52
2024-04-18T12:19:45.513Z,19.83
2024-04-18T12:22:35.031Z,20.85
2024-04-18T12:25:21.101Z,16.80
2024-04-18T12:27:52.297Z,16.02
2024-04-18T12:30:36.808Z,15.75
2024-04-18T12:33:22.717Z,16.10
2024-04-18T12:35:53.730Z,17.08
2024-04-18T12:38:24.314Z,16.95
2024-04-18T12:41:04.868Z,16.65
2024-04-18T12:43:39.259Z,19.13
2024-04-18T12:46:29.101Z,16.42
2024-04-18T12:49:00.049Z,14.95
2024-04-18T12:51:31.779Z,13.60
2024-04-18T12:54:02.475Z,17.23
2024-04-18T12:56:54.004Z,14.20
2024-04-18T12:59:25.387Z,15.45
2024-04-18T13:01:56.020Z,14.50
2024-04-18T13:04:26.370Z,14.93
2024-04-18T13:06:56.547Z,14.10
2024-04-18T13:09:32.842Z,17.00
2024-04-18T13:12:04.496Z,16.52
2024-04-18T13:14:54.418Z,15.20
2024-04-18T13:17:25.369Z,15.38
2024-04-18T13:19:56.092Z,16.58
2024-04-18T13:22:26.229Z,15.23
2024-04-18T13:24:57.727Z,16.17
2024-04-18T13:27:33.375Z,17.40
2024-04-18T13:30:08.690Z,15.98
2024-04-18T13:32:46.986Z,16.25
2024-04-18T13:35:20.411Z,19.20
2024-04-18T13:37:53.142Z,17.63
2024-04-18T13:40:27.775Z,19.20
2024-04-18T13:43:01.948Z,17.02
2024-04-18T13:45:34.186Z,16.80
2024-04-18T13:48:06.574Z,15.63
2024-04-18T13:50:49.228Z,15.70
2024-04-18T13:53:20.846Z,15.65
2024-04-18T13:55:52.604Z,17.25
2024-04-18T13:58:24.523Z,16.80
2024-04-18T14:01:03.184Z,25.00
2024-04-18T14:03:34.516Z,17.60
2024-04-18T14:06:12.590Z,16.83
2024-04-18T14:08:43.950Z,16.10
2024-04-18T14:11:33.154Z,14.82
2024-04-18T14:14:11.027Z,14.75
2024-04-18T14:17:20.994Z,15.05
2024-04-18T14:20:07.639Z,14.68
2024-04-18T14:22:51.829Z,14.10
2024-04-18T14:25:24.759Z,14.85
2024-04-18T14:28:23.191Z,15.48
2024-04-18T14:31:16.666Z,15.75
2024-04-18T14:33:50.060Z,14.25
2024-04-18T14:36:21.002Z,14.27
2024-04-18T14:38:51.874Z,15.13
2024-04-18T14:41:24.845Z,14.52
2024-04-18T14:44:00.417Z,14.63
2024-04-18T14:46:31.987Z,16.35
2024-04-18T14:49:24.531Z,15.60
2024-04-18T14:51:58.400Z,15.85
2024-04-18T14:54:28.849Z,16.10
2024-04-18T14:56:59.175Z,17.02
2024-04-18T14:59:42.547Z,15.55
2024-04-18T15:02:13.729Z,16.17
2024-04-18T15:05:03.704Z,14.82
2024-04-18T15:07:37.163Z,15.85
2024-04-18T15:10:19.711Z,15.68
2024-04-18T15:12:59.626Z,16.55
2024-04-18T15:15:32.941Z,16.83
2024-04-18T15:18:03.468Z,17.85
2024-04-18T15:20:34.719Z,15.00
2024-04-18T15:23:12.157Z,14.77
2024-04-18T15:25:42.990Z,14.38
2024-04-18T15:28:13.284Z,15.07
2024-04-18T15:30:45.178Z,15.05
2024-04-18T15:33:25.165Z,14.65
2024-04-18T15:35:55.922Z,15.52
2024-04-18T15:38:26.075Z,16.27
2024-04-18T15:41:15.598Z,17.38
2024-04-18T15:43:45.988Z,17.05
2024-04-18T15:46:35.321Z,15.75
2024-04-18T15:49:11.333Z,15.95
2024-04-18T15:51:41.714Z,15.38
2024-04-18T15:54:12.485Z,15.32
2024-04-18T15:56:42.638Z,15.70
2024-04-18T15:59:31.503Z,16.80
2024-04-18T16:02:13.293Z,25.05
2024-04-18T16:04:49.716Z,16.88
2024-04-18T16:07:22.936Z,16.30
2024-04-18T16:10:18.037Z,16.15
2024-04-18T16:12:57.398Z,15.48
2024-04-18T16:15:28.828Z,16.27
2024-04-18T16:18:05.824Z,14.82
2024-04-18T16:20:39.403Z,15.02
2024-04-18T16:23:09.761Z,15.02
2024-04-18T16:25:40.969Z,15.43
2024-04-18T16:28:11.137Z,16.13
2024-04-18T16:31:02.844Z,22.23
2024-04-18T16:33:33.032Z,16.58
2024-04-18T16:36:05.387Z,16.77
2024-04-18T16:38:54.594Z,16.73
2024-04-18T16:41:28.130Z,16.90
2024-04-18T16:43:58.772Z,15.98
2024-04-18T16:46:31.480Z,15.98
2024-04-18T16:49:01.891Z,16.17
2024-04-18T16:51:32.049Z,15.90
2024-04-18T16:54:06.732Z,15.85
2024-04-18T16:57:07.213Z,16.58
2024-04-18T16:59:55.287Z,16.50
2024-04-18T17:02:25.315Z,16.33
2024-04-18T17:04:55.391Z,15.90
2024-04-18T17:07:25.596Z,16.17
2024-04-18T17:10:14.347Z,16.88
2024-04-18T17:13:03.411Z,17.35
2024-04-18T17:16:03.541Z,16.90
2024-04-18T17:18:35.919Z,18.08
2024-04-18T17:21:06.790Z,16.33
2024-04-18T17:23:36.848Z,16.05
2024-04-18T17:26:06.854Z,15.15
2024-04-18T17:28:37.583Z,14.52
2024-04-18T17:31:07.696Z,13.77
2024-04-18T17:33:37.957Z,13.90
2024-04-18T17:36:08.538Z,13.02
2024-04-18T17:38:50.417Z,11.63
2024-04-18T17:41:35.401Z,11.63
2024-04-18T17:44:23.779Z,10.38
2024-04-18T17:46:58.469Z,9.95
2024-04-18T17:49:28.721Z,10.40
2024-04-18T17:51:59.679Z,10.48
2024-04-18T17:54:31.602Z,10.73
2024-04-18T17:57:01.664Z,11.40
2024-04-18T17:59:32.185Z,10.98
2024-04-18T18:02:02.735Z,9.77
2024-04-18T18:04:33.826Z,10.18
2024-04-18T18:07:06.240Z,9.48
2024-04-18T18:09:36.347Z,9.13
2024-04-18T18:12:07.076Z,9.07
2024-04-18T18:14:37.285Z,10.32
2024-04-18T18:17:08.762Z,9.23
2024-04-18T18:19:39.259Z,8.70
2024-04-18T18:22:09.984Z,8.55
2024-04-18T18:24:42.908Z,8.60
2024-04-18T18:27:13.670Z,8.20
2024-04-18T18:29:44.839Z,7.03
2024-04-18T18:32:15.238Z,7.63
2024-04-18T18:34:49.614Z,7.00
2024-04-18T18:37:20.043Z,7.32
2024-04-18T18:40:12.372Z,6.68
2024-04-18T18:42:42.498Z,6.80
2024-04-18T18:45:12.817Z,6.97
2024-04-18T18:47:45.960Z,6.50
2024-04-18T18:50:24.867Z,6.43
2024-04-18T18:52:55.708Z,6.75
2024-04-18T18:55:38.663Z,5.95
2024-04-18T18:58:08.824Z,6.53
2024-04-18T19:00:38.737Z,6.43
2024-04-18T19:03:15.029Z,6.40
2024-04-18T19:05:48.784Z,6.68
2024-04-18T19:08:18.851Z,6.38
2024-04-18T19:10:57.793Z,6.68
2024-04-18T19:13:28.025Z,6.50
2024-04-18T19:15:59.739Z,12.27
2024-04-18T19:18:29.975Z,13.70
2024-04-18T19:21:01.079Z,14.80
2024-04-18T19:23:38.972Z,15.50
2024-04-18T19:26:14.754Z,19.83
2024-04-18T19:28:45.462Z,16.58
2024-04-18T19:31:15.472Z,17.00
2024-04-18T19:33:45.702Z,15.95
2024-04-18T19:36:15.652Z,16.02
2024-04-18T19:38:46.784Z,17.15
2024-04-18T19:41:28.719Z,16.50
2024-04-18T19:43:58.699Z,16.95
2024-04-18T19:46:28.672Z,16.30
2024-04-18T19:49:14.426Z,16.55
2024-04-18T19:52:00.988Z,15.70
2024-04-18T19:54:36.138Z,14.88
2024-04-18T19:57:07.076Z,15.40
2024-04-18T19:59:37.402Z,15.30
2024-04-18T20:02:08.380Z,16.45
2024-04-18T20:04:42.747Z,14.05
2024-04-18T20:07:12.756Z,14.40
2024-04-18T20:09:42.762Z,14.90
2024-04-18T20:12:13.298Z,14.05
2024-04-18T20:15:04.110Z,15.30
2024-04-18T20:17:34.148Z,15.25
2024-04-18T20:20:04.204Z,15.07
2024-04-18T20:22:34.577Z,14.18
2024-04-18T20:25:06.734Z,15.52
2024-04-18T20:27:43.150Z,15.20
2024-04-18T20:30:13.816Z,14.75
2024-04-18T20:33:03.900Z,14.75
2024-04-18T20:35:36.889Z,14.25
2024-04-18T20:38:06.866Z,14.10
2024-04-18T20:40:36.893Z,13.32
2024-04-18T20:43:06.962Z,13.93
2024-04-18T20:45:36.969Z,14.50
2024-04-18T20:48:07.575Z,14.18
2024-04-18T20:50:37.664Z,13.32
2024-04-18T20:53:07.423Z,14.45
2024-04-18T20:55:37.443Z,14.00
2024-04-18T20:58:07.510Z,14.77
2024-04-18T21:00:39.416Z,13.82
2024-04-18T21:03:09.735Z,14.07
2024-04-18T21:05:39.825Z,15.63
2024-04-18T21:08:10.339Z,14.98
2024-04-18T21:10:41.186Z,15.20
2024-04-18T21:13:16.785Z,14.18
2024-04-18T21:15:50.485Z,14.55
2024-04-18T21:18:20.583Z,14.52
2024-04-18T21:20:50.682Z,13.15
2024-04-18T21:23:20.476Z,12.88
2024-04-18T21:25:50.516Z,12.63
2024-04-18T21:28:21.564Z,12.25
2024-04-18T21:30:53.017Z,13.35
2024-04-18T21:33:23.240Z,13.80
2024-04-18T21:35:53.063Z,12.77
2024-04-18T21:38:46.715Z,12.93
2024-04-18T21:41:24.478Z,14.13
2024-04-18T21:44:01.404Z,13.32
2024-04-18T21:46:31.575Z,14.68
2024-04-18T21:49:02.090Z,14.75
2024-04-18T21:51:32.345Z,14.27
2024-04-18T21:54:02.569Z,14.45
2024-04-18T21:56:32.267Z,34.58
2024-04-18T21:59:02.198Z,17.33
2024-04-18T22:01:43.609Z,16.63
2024-04-18T22:04:16.539Z,21.40
2024-04-18T22:06:47.865Z,15.05
2024-04-18T22:09:19.117Z,15.00
2024-04-18T22:11:49.172Z,13.57
2024-04-18T22:14:19.714Z,13.45
2024-04-18T22:16:49.915Z,13.68
2024-04-18T22:19:20.563Z,13.45
2024-04-18T22:21:54.108Z,14.05
2024-04-18T22:24:23.970Z,14.48
2024-04-18T22:26:54.039Z,14.90
2024-04-18T22:29:24.154Z,14.75
2024-04-18T22:31:55.123Z,14.10
2024-04-18T22:34:31.210Z,16.23
2024-04-18T22:37:27.210Z,15.65
2024-04-18T22:39:57.413Z,16.08
2024-04-18T22:42:27.544Z,16.25
2024-04-18T22:44:59.923Z,16.40
2024-04-18T22:47:30.066Z,15.57
2024-04-18T22:50:00.322Z,15.85
2024-04-18T22:52:31.179Z,19.42
2024-04-18T22:55:03.510Z,17.00
2024-04-18T22:57:33.854Z,17.02
2024-04-18T23:00:04.084Z,15.90
2024-04-18T23:02:34.232Z,15.02
2024-04-18T23:05:05.695Z,14.65
2024-04-18T23:07:36.150Z,15.07
2024-04-18T23:10:26.442Z,15.85
2024-04-18T23:12:56.954Z,15.85
2024-04-18T23:15:49.073Z,16.20
2024-04-18T23:18:19.670Z,15.27
2024-04-18T23:20:50.248Z,14.57
2024-04-18T23:23:20.453Z,14.82
2024-04-18T23:25:52.645Z,13.68
2024-04-18T23:28:22.801Z,13.85
2024-04-18T23:30:55.587Z,17.08
2024-04-18T23:33:25.858Z,14.65
2024-04-18T23:35:56.746Z,21.77
2024-04-18T23:38:28.148Z,13.25
2024-04-18T23:40:58.962Z,12.40
2024-04-18T23:43:29.246Z,11.82
2024-04-18T23:46:00.157Z,12.25
2024-04-18T23:48:31.063Z,13.07
2024-04-18T23:51:01.408Z,14.80
2024-04-18T23:53:31.684Z,14.77
2024-04-18T23:56:02.160Z,14.95
2024-04-18T23:58:32.881Z,12.48
